Friday, October 24, 2014
07:50 UTC
  |  Log In   |  Register Free
Airport Search:

Lincoln Airport
(KLNK)

FAA data valid effective September 18, 2014 - November 13, 2014 (unless otherwise noted).

 
 
 
 
 
 
 
 
 
 
 
 
 
 

Current Aviation Weather for Lincoln Airport (KLNK)

The most recent METAR observation for KLNK was updated at: 0713
METAR Summary (Translated METAR)
KLNK
240654Z AUTO 17005KT 9SM CLR 12/11 A3000 RMK AO2 SLP154 T01220106
KAHQ
240655Z AUTO 00000KT 10SM CLR 10/08 A2997 RMK AO2 T01030083
(24.6 nm NE from KLNK)
KBIE
240655Z AUTO 19007KT 7SM CLR 15/14 A3002 RMK AO2 T01450135
(33 nm SE from KLNK)
TAF Summary (Translated TAF)
KLNK
240520Z 2406/2506 16004KT P6SM SCT250 FM241000 17006KT 5SM BR SCT007 SCT250 WS015/23035KT TEMPO 2411/2414 3SM BR OVC007 FM241500 22009KT P6SM SCT250 FM242100 30010KT P6SM SKC
  Airport Weather Conditions for KLNK

 Current Weather at LNK
54° F
Fair
South winds at 5.8 mph
LNK NOAA Radar

Pressure: 30.00 in
Humidity: 90%
Wind: South at 5.8 MPH (5 KT)
Dew Point: 51.1°F
Visibility: 9.00 mi


Airport Weather Forecast for KLNK

Translated METAR and TAF for KLNK
Translated METAR for KLNK (0745 UTC 24 October 2014)
found at http://aviationweather.gov/adds/metars/
 
METAR text: KLNK 240654Z AUTO 17005KT 9SM CLR 12/11 A3000 RMK AO2 SLP154 T01220106
Conditions at: KLNK (LINCOLN , NE, US) observed 0654 UTC 24 October 2014
Temperature: 12.2°C (54°F)
Dewpoint: 10.6°C (51°F) [RH = 90%]
Pressure (altimeter): 30.00 inches Hg (1016.0 mb)
[Sea-level pressure: 1015.4 mb]
Winds: from the S (170 degrees) at 6 MPH (5 knots; 2.6 m/s)
Visibility: 9 miles (14 km)
Ceiling: at least 12,000 feet AGL
Clouds: sky clear below 12,000 feet AGL
Weather: automated observation with no human augmentation;
there may or may not be significant weather present at this time
Translated TAF for KLNK
Forecast for: KLNK (LINCOLN , NE, US)
TAF Text: KLNK 240520Z 2406/2506 16004KT P6SM SCT250
Forecast period: 0600 to 1000 UTC 24 October 2014
Forecast type: FROM: standard forecast or significant change
Winds: from the SSE (160 degrees) at 5 MPH (4 knots; 2.1 m/s)
Visibility: 6 or more miles (10+ km)
Clouds: scattered clouds at 25000 feet AGL
Weather: no significant weather forecast for this period
TAF Text: FM241000 17006KT 5SM BR SCT007 SCT250 WS015/23035KT
Forecast period: 1000 to 1500 UTC 24 October 2014
Forecast type: FROM: standard forecast or significant change
Winds: from the S (170 degrees) at 7 MPH (6 knots; 3.1 m/s)
Visibility: 5 miles (8 km)
Clouds: scattered clouds at 700 feet AGL
scattered clouds at 25000 feet AGL
Wind shear: at 1500 feet ( 457 m) AGL, from the SW (230 degrees) at 40 MPH (35 knots; 18.2 m/s)
Weather: BR  (mist)
TAF Text: TEMPO 2411/2414 3SM BR OVC007
Forecast period: 1100 to 1400 UTC 24 October 2014
Forecast type: TEMPORARY: The following changes expected for less than half the time period
Visibility: 3 miles (5 km)
Ceiling: 700 feet AGL
Clouds: overcast cloud deck at 700 feet AGL
Weather: BR  (mist)
TAF Text: FM241500 22009KT P6SM SCT250
Forecast period: 1500 to 2100 UTC 24 October 2014
Forecast type: FROM: standard forecast or significant change
Winds: from the SW (220 degrees) at 10 MPH (9 knots; 4.7 m/s)
Visibility: 6 or more miles (10+ km)
Clouds: scattered clouds at 25000 feet AGL
Weather: no significant weather forecast for this period
TAF Text: FM242100 30010KT P6SM SKC
Forecast period: 2100 UTC 24 October 2014 to 0600 UTC 25 October 2014
Forecast type: FROM: standard forecast or significant change
Winds: from the WNW (300 degrees) at 12 MPH (10 knots; 5.2 m/s)
Visibility: 6 or more miles (10+ km)
Clouds: clear skies
Weather: no significant weather forecast for this period

Find All Airport Services Find A Hotel Find A Rental Car Find A Golf Course Find A Restaurant $100 Hamburger



FBO's on the Field
FBO Company Facility Photos Services Transportation Aviation Fuel Prices: Prices include tax
Catering Weather Repair Courtesy Rental Type 100LL JetA JetA+ MOGAS 8087
 
Duncan Aviation

This FBO has not yet been rated
FS:Avfuel
Last Updated: Oct-21
Login to update fuel prices
SS:
Contact Duncan AviationMore FBO Information
 
Silverhawk Aviation

This FBO has not yet been rated
FS: Phillips 66
Last Updated: Oct-21
Login to update fuel prices
SS:
Contact Silverhawk AviationMore FBO Information
 
Add another FBO Facility Photos Catering Weather Repair Courtesy Rental Type 100LL JetA JetA+ MOGAS 8087
Services Transportation Aviation Fuel Prices: Prices include tax


model-print
model-print
model-print
model-print